Time;durP1;ratioP1;P1;durP2;ratioP2;P2;SDS_P1;SDS_P2;PMS_P1;PMS_P2;Temp;Humidity;BMP_temperature;BMP_pressure;BME280_temperature;BME280_humidity;BME280_pressure;Samples;Min_cycle;Max_cycle;Signal;HPM_P1;HPM_P2
2021/07/29 00:00:41;;;;;;;19.98;10.15;;;717.40;1433.60;;;;;;5072282;28;20025;-61
2021/07/29 00:03:07;;;;;;;20.63;9.38;;;717.20;1408.00;;;;;;5071952;28;20082;-61
2021/07/29 00:05:36;;;;;;;24.33;11.30;;;717.20;1408.00;;;;;;5072128;28;20397;-60
2021/07/29 00:08:02;;;;;;;22.73;8.82;;;717.20;1382.40;;;;;;5072183;28;20029;-60
2021/07/29 00:10:28;;;;;;;20.33;10.13;;;717.10;1408.00;;;;;;5072030;28;20029;-60
2021/07/29 00:12:54;;;;;;;20.08;8.40;;;717.10;1433.60;;;;;;5071796;28;20025;-60
2021/07/29 00:15:20;;;;;;;20.75;8.90;;;716.90;1408.00;;;;;;5072180;28;20048;-60
2021/07/29 00:20:24;;;;;;;16.23;8.40;;;716.90;1510.40;;;;;;5072071;28;20039;-60
2021/07/29 00:22:54;;;;;;;18.23;8.82;;;716.80;1459.20;;;;;;5071842;28;20033;-60
2021/07/29 00:25:21;;;;;;;21.98;8.35;;;716.80;1382.40;;;;;;5072007;28;20028;-59
2021/07/29 00:27:48;;;;;;;18.15;7.80;;;716.80;1356.80;;;;;;5071900;28;20032;-60
2021/07/29 00:30:15;;;;;;;21.40;10.52;;;692.10;1331.20;;;;;;5071646;28;20069;-60
2021/07/29 00:32:42;;;;;;;15.98;8.68;;;716.80;1305.60;;;;;;5071363;28;20119;-59
2021/07/29 00:35:14;;;;;;;32.83;9.32;;;692.10;1305.60;;;;;;5071509;28;20120;-60
2021/07/29 00:37:44;;;;;;;21.90;10.03;;;692.10;1280.00;;;;;;5069485;28;20032;-63
2021/07/29 00:40:11;;;;;;;19.73;9.68;;;692.10;1331.20;;;;;;5071615;28;20020;-60
2021/07/29 00:42:37;;;;;;;17.35;9.07;;;692.10;1305.60;;;;;;5071346;28;20036;-60
2021/07/29 00:45:03;;;;;;;18.92;10.77;;;692.00;1331.20;;;;;;5071371;28;20020;-60
2021/07/29 00:47:30;;;;;;;22.70;9.85;;;691.90;1331.20;;;;;;5071297;28;20040;-60
2021/07/29 00:49:56;;;;;;;20.38;11.05;;;691.80;1331.20;;;;;;5071130;28;20499;-60
2021/07/29 00:52:22;;;;;;;19.40;9.63;;;691.70;1356.80;;;;;;5071390;28;20048;-61
2021/07/29 00:54:50;;;;;;;27.98;11.55;;;691.60;1408.00;;;;;;5071346;28;20059;-60
2021/07/29 00:57:16;;;;;;;20.15;8.13;;;691.30;1459.20;;;;;;5071347;28;20028;-61
2021/07/29 00:59:42;;;;;;;23.27;9.45;;;691.30;1433.60;;;;;;5071016;28;20099;-60
2021/07/29 01:02:09;;;;;;;22.23;10.02;;;691.20;1408.00;;;;;;5070979;28;20111;-61
2021/07/29 01:04:34;;;;;;;18.92;8.77;;;691.20;1408.00;;;;;;5070859;28;20024;-60
2021/07/29 01:07:01;;;;;;;24.83;8.70;;;691.30;1382.40;;;;;;5070877;28;20066;-60
2021/07/29 01:09:28;;;;;;;15.60;8.05;;;691.40;1382.40;;;;;;5070686;28;20032;-59
2021/07/29 01:11:53;;;;;;;22.48;10.13;;;691.40;1356.80;;;;;;5070863;28;20021;-60
2021/07/29 01:14:19;;;;;;;22.65;9.13;;;691.50;1356.80;;;;;;5070917;28;20028;-59
2021/07/29 01:16:45;;;;;;;23.17;9.48;;;691.60;1331.20;;;;;;5070707;28;20028;-60
2021/07/29 01:19:11;;;;;;;24.42;9.68;;;691.70;1305.60;;;;;;5070903;28;20024;-59
2021/07/29 01:21:38;;;;;;;22.42;9.77;;;691.80;1305.60;;;;;;5070728;28;20070;-60
2021/07/29 01:24:05;;;;;;;22.13;9.25;;;691.80;1280.00;;;;;;5070481;28;20024;-60
2021/07/29 01:26:31;;;;;;;15.40;9.18;;;691.70;1331.20;;;;;;5070431;28;20082;-61
2021/07/29 01:28:57;;;;;;;18.10;8.80;;;691.60;1433.60;;;;;;5070500;28;20029;-60
2021/07/29 01:31:24;;;;;;;18.52;8.60;;;691.60;1433.60;;;;;;5070297;28;20039;-60
2021/07/29 01:33:51;;;;;;;19.75;8.88;;;691.50;1408.00;;;;;;5070442;28;20064;-60
2021/07/29 01:36:17;;;;;;;19.77;8.80;;;691.40;1408.00;;;;;;5070289;28;20471;-61
2021/07/29 01:38:43;;;;;;;18.80;9.10;;;691.30;1356.80;;;;;;5070307;28;20028;-60
2021/07/29 01:41:08;;;;;;;25.83;9.50;;;691.20;1382.40;;;;;;5070730;28;20090;-59
2021/07/29 01:43:34;;;;;;;23.33;9.18;;;691.20;1408.00;;;;;;5069979;28;20483;-60
2021/07/29 01:46:00;;;;;;;27.27;9.05;;;666.50;1382.40;;;;;;5070304;28;20021;-59
2021/07/29 01:48:27;;;;;;;23.25;8.90;;;666.50;1356.80;;;;;;5069807;28;20040;-60
2021/07/29 01:50:53;;;;;;;26.90;9.80;;;666.30;1356.80;;;;;;5070049;28;20016;-60
2021/07/29 01:53:19;;;;;;;18.42;9.10;;;666.20;1356.80;;;;;;5070458;28;20028;-60
2021/07/29 01:55:47;;;;;;;24.13;10.27;;;666.20;1356.80;;;;;;5070249;28;20371;-61
2021/07/29 01:58:13;;;;;;;21.00;8.30;;;666.30;1382.40;;;;;;5070212;28;20372;-61
2021/07/29 02:00:41;;;;;;;25.15;10.07;;;666.30;1408.00;;;;;;5070315;28;20025;-60
2021/07/29 02:03:07;;;;;;;23.92;9.88;;;666.40;1408.00;;;;;;5069837;28;20071;-60
2021/07/29 02:05:33;;;;;;;23.23;12.00;;;666.30;1408.00;;;;;;5070197;28;20056;-60
2021/07/29 02:07:59;;;;;;;27.67;10.18;;;666.20;1433.60;;;;;;5070069;28;20072;-60
2021/07/29 02:10:25;;;;;;;19.05;9.77;;;666.30;1408.00;;;;;;5070023;28;20024;-60
2021/07/29 02:12:52;;;;;;;22.38;10.25;;;666.30;1433.60;;;;;;5070258;28;20466;-60
2021/07/29 02:15:18;;;;;;;21.70;9.23;;;666.20;1433.60;;;;;;5069931;28;20474;-60
2021/07/29 02:17:44;;;;;;;21.35;9.60;;;666.20;1433.60;;;;;;5069992;28;20025;-60
2021/07/29 02:20:10;;;;;;;22.73;9.95;;;666.20;1459.20;;;;;;5070101;28;20020;-60
2021/07/29 02:22:36;;;;;;;21.00;9.95;;;666.30;1433.60;;;;;;5069750;28;20025;-60
2021/07/29 02:25:04;;;;;;;12.65;8.77;;;666.20;1433.60;;;;;;5069999;28;20020;-60
2021/07/29 02:27:30;;;;;;;18.58;11.38;;;666.30;1459.20;;;;;;5070113;28;20093;-60
2021/07/29 02:29:57;;;;;;;20.13;11.20;;;666.40;1510.40;;;;;;5069599;28;20467;-60
2021/07/29 02:32:23;;;;;;;21.52;10.82;;;666.50;1561.60;;;;;;5069516;28;20049;-60
2021/07/29 02:34:50;;;;;;;18.90;11.48;;;691.20;1612.80;;;;;;5069980;28;20082;-59
2021/07/29 02:37:15;;;;;;;22.15;11.57;;;691.30;1612.80;;;;;;5069538;28;20025;-62
2021/07/29 02:39:41;;;;;;;26.40;10.68;;;691.30;1612.80;;;;;;5069708;28;20070;-59
2021/07/29 02:42:08;;;;;;;24.23;10.82;;;666.50;1587.20;;;;;;5069505;28;20020;-63
2021/07/29 02:44:34;;;;;;;20.23;9.85;;;666.40;1561.60;;;;;;5069549;28;20522;-60
2021/07/29 02:47:00;;;;;;;21.58;9.52;;;666.20;1536.00;;;;;;5069760;28;20094;-60
2021/07/29 02:49:26;;;;;;;23.60;10.45;;;666.20;1536.00;;;;;;5069570;28;20471;-60
2021/07/29 02:51:52;;;;;;;16.33;10.38;;;666.20;1561.60;;;;;;5069725;28;20029;-61
2021/07/29 02:54:18;;;;;;;22.55;10.07;;;665.90;1587.20;;;;;;5069729;28;20039;-63
2021/07/29 02:56:44;;;;;;;20.52;10.82;;;665.80;1587.20;;;;;;5069692;28;20033;-60
2021/07/29 02:59:09;;;;;;;24.85;11.70;;;665.90;1587.20;;;;;;5069922;28;20042;-61
2021/07/29 03:01:35;;;;;;;20.08;11.15;;;665.70;1638.40;;;;;;5073208;28;20039;-61
2021/07/29 03:04:01;;;;;;;19.92;10.75;;;665.80;1664.00;;;;;;5072974;28;20025;-60
2021/07/29 03:06:27;;;;;;;17.42;10.52;;;665.80;1638.40;;;;;;5073115;28;20029;-60
2021/07/29 03:08:53;;;;;;;24.30;10.73;;;665.80;1638.40;;;;;;5073379;28;20024;-62
2021/07/29 03:11:19;;;;;;;30.45;12.98;;;665.70;1689.60;;;;;;5073417;28;20024;-63
2021/07/29 03:13:45;;;;;;;24.08;11.52;;;665.70;1689.60;;;;;;5073318;28;20028;-60
2021/07/29 03:16:11;;;;;;;27.23;11.43;;;665.80;1715.20;;;;;;5073376;28;20055;-60
2021/07/29 03:18:37;;;;;;;17.35;10.15;;;665.70;1740.80;;;;;;5073262;28;20070;-60
2021/07/29 03:21:06;;;;;;;27.58;12.27;;;665.80;1715.20;;;;;;5073246;28;20039;-60
2021/07/29 03:23:32;;;;;;;16.77;11.25;;;665.70;1715.20;;;;;;5073083;28;20025;-60
2021/07/29 03:25:58;;;;;;;18.48;11.80;;;665.70;1715.20;;;;;;5072936;28;20028;-60
2021/07/29 03:28:23;;;;;;;21.17;11.20;;;665.80;1689.60;;;;;;5072640;28;20119;-60
2021/07/29 03:30:50;;;;;;;20.17;10.52;;;665.80;1664.00;;;;;;5072990;28;20060;-60
2021/07/29 03:33:16;;;;;;;20.92;10.88;;;665.80;1612.80;;;;;;5072347;28;20114;-59
2021/07/29 03:35:42;;;;;;;24.52;9.90;;;665.80;1612.80;;;;;;5072791;28;20483;-60
2021/07/29 03:38:08;;;;;;;15.98;9.88;;;665.80;1587.20;;;;;;5072812;28;20028;-61
2021/07/29 03:40:35;;;;;;;28.70;11.25;;;665.90;1587.20;;;;;;5072501;28;20031;-60
2021/07/29 03:43:04;;;;;;;17.73;10.85;;;665.80;1587.20;;;;;;5072639;28;20036;-60
2021/07/29 03:45:31;;;;;;;20.60;9.57;;;665.90;1561.60;;;;;;5072566;28;20067;-59
2021/07/29 03:47:57;;;;;;;21.35;10.48;;;665.90;1561.60;;;;;;5072195;28;20037;-60
2021/07/29 03:50:23;;;;;;;19.70;10.82;;;665.90;1561.60;;;;;;5072370;28;20032;-60
2021/07/29 03:52:49;;;;;;;18.23;10.35;;;666.10;1561.60;;;;;;5072626;28;20032;-60
2021/07/29 03:55:15;;;;;;;17.25;10.27;;;666.30;1561.60;;;;;;5072988;28;20044;-60
2021/07/29 03:57:41;;;;;;;23.20;10.75;;;666.40;1536.00;;;;;;5080967;28;20039;-61
2021/07/29 04:00:08;;;;;;;15.98;9.90;;;666.30;1587.20;;;;;;5089619;28;20394;-58
2021/07/29 04:02:34;;;;;;;20.20;10.63;;;666.40;1561.60;;;;;;5092189;28;20032;-60
2021/07/29 04:05:00;;;;;;;19.27;10.68;;;666.50;1561.60;;;;;;5092444;28;20051;-59
2021/07/29 04:07:26;;;;;;;21.00;9.95;;;691.20;1587.20;;;;;;5092236;28;20390;-60
2021/07/29 04:09:52;;;;;;;23.25;10.88;;;691.30;1612.80;;;;;;5092213;28;20016;-60
2021/07/29 04:12:18;;;;;;;23.30;10.60;;;691.40;1638.40;;;;;;5092610;28;20103;-59
2021/07/29 04:14:47;;;;;;;19.58;10.32;;;691.30;1587.20;;;;;;5091845;28;20410;-60
2021/07/29 04:17:13;;;;;;;21.48;11.02;;;691.40;1587.20;;;;;;5092150;28;20029;-59
2021/07/29 04:19:39;;;;;;;27.30;11.52;;;691.70;1612.80;;;;;;5092316;28;20024;-60
2021/07/29 04:22:06;;;;;;;21.02;11.32;;;691.80;1638.40;;;;;;5091996;28;20027;-60
2021/07/29 04:24:33;;;;;;;24.10;12.32;;;691.70;1664.00;;;;;;5092006;28;20032;-60
2021/07/29 04:27:00;;;;;;;25.08;12.38;;;691.70;1664.00;;;;;;5092054;28;20062;-60
2021/07/29 04:29:26;;;;;;;21.67;11.35;;;691.80;1664.00;;;;;;5091878;28;20028;-59
2021/07/29 04:31:53;;;;;;;25.08;12.68;;;692.10;1638.40;;;;;;5091837;28;20032;-60
2021/07/29 04:34:20;;;;;;;17.77;11.05;;;716.90;1664.00;;;;;;5092263;28;20577;-60
2021/07/29 04:36:46;;;;;;;19.08;10.25;;;717.10;1638.40;;;;;;5091678;28;20467;-59
2021/07/29 04:39:12;;;;;;;15.20;10.80;;;717.20;1638.40;;;;;;5091701;28;20416;-60
2021/07/29 04:41:42;;;;;;;24.35;12.63;;;717.20;1638.40;;;;;;5091799;28;20024;-60
2021/07/29 04:44:09;;;;;;;20.10;11.25;;;717.10;1638.40;;;;;;5091546;28;20081;-60
2021/07/29 04:46:39;;;;;;;26.10;11.43;;;716.90;1638.40;;;;;;5091440;28;20023;-60
2021/07/29 04:49:07;;;;;;;20.35;10.32;;;716.90;1638.40;;;;;;5091463;28;20032;-60
2021/07/29 04:51:33;;;;;;;22.23;11.60;;;716.80;1664.00;;;;;;5091854;28;20530;-60
2021/07/29 04:53:59;;;;;;;18.02;11.23;;;717.10;1664.00;;;;;;5091510;28;20031;-59
2021/07/29 04:56:25;;;;;;;18.80;11.38;;;717.70;1561.60;;;;;;5091303;28;20024;-60
2021/07/29 04:58:51;;;;;;;22.08;12.25;;;768.10;1561.60;;;;;;5091522;28;20020;-60
2021/07/29 05:01:17;;;;;;;21.92;11.20;;;768.60;1536.00;;;;;;5091145;28;20039;-59
2021/07/29 05:03:44;;;;;;;19.95;11.60;;;743.00;1536.00;;;;;;5091371;28;20115;-60
2021/07/29 05:06:10;;;;;;;20.90;11.48;;;768.50;1510.40;;;;;;5091245;28;20497;-58
2021/07/29 05:08:35;;;;;;;20.13;10.82;;;819.60;1382.40;;;;;;5091077;28;20043;-59
2021/07/29 05:11:05;;;;;;;19.08;11.85;;;845.40;1331.20;;;;;;5091280;28;20355;-59
2021/07/29 05:13:32;;;;;;;24.23;12.30;;;871.10;1254.40;;;;;;5091162;28;20024;-60
2021/07/29 05:15:59;;;;;;;29.67;11.43;;;870.50;1305.60;;;;;;5091059;28;20020;-58
2021/07/29 05:18:24;;;;;;;30.90;13.43;;;871.20;1254.40;;;;;;5090867;28;20508;-59
2021/07/29 05:20:50;;;;;;;18.67;10.75;;;871.10;1254.40;;;;;;5091232;28;20048;-59
2021/07/29 05:23:16;;;;;;;16.63;10.70;;;870.50;1254.40;;;;;;5090191;28;20039;-59
2021/07/29 05:25:42;;;;;;;18.98;11.68;;;845.40;1280.00;;;;;;5090908;28;20032;-59
2021/07/29 05:28:08;;;;;;;29.08;12.63;;;819.80;1331.20;;;;;;5090481;28;20253;-58
2021/07/29 05:30:37;;;;;;;17.95;11.60;;;819.60;1356.80;;;;;;5089485;28;20126;-59
2021/07/29 05:33:04;;;;;;;25.75;11.40;;;794.30;1433.60;;;;;;5090593;28;20070;-59
2021/07/29 05:35:31;;;;;;;25.38;11.70;;;794.20;1433.60;;;;;;5090846;28;20371;-59
2021/07/29 05:37:57;;;;;;;24.52;10.98;;;793.80;1484.80;;;;;;5090624;28;20020;-59
2021/07/29 05:40:23;;;;;;;21.30;11.68;;;793.90;1484.80;;;;;;5090763;28;20115;-58
2021/07/29 05:42:48;;;;;;;19.10;13.13;;;819.90;1408.00;;;;;;5090978;28;20020;-58
2021/07/29 05:45:14;;;;;;;19.17;12.82;;;921.80;1203.20;;;;;;5090453;28;20024;-59
2021/07/29 05:47:40;;;;;;;15.32;10.90;;;973.40;1075.20;;;;;;5090607;28;20036;-59
2021/07/29 05:50:06;;;;;;;18.77;10.80;;;922.50;1177.60;;;;;;5090361;28;20043;-58
2021/07/29 05:52:31;;;;;;;16.70;11.88;;;896.00;1254.40;;;;;;5090954;28;20024;-61
2021/07/29 05:54:57;;;;;;;14.65;10.98;;;922.40;1203.20;;;;;;5090288;28;20103;-58
2021/07/29 05:57:23;;;;;;;25.25;12.30;;;870.60;1305.60;;;;;;5090371;28;20486;-58
2021/07/29 05:59:49;;;;;;;19.48;11.65;;;845.30;1356.80;;;;;;5090394;28;20016;-58
2021/07/29 06:02:14;;;;;;;18.95;13.02;;;844.90;1382.40;;;;;;5090047;28;20107;-58
2021/07/29 06:04:40;;;;;;;27.02;14.13;;;871.30;1228.80;;;;;;5090396;28;20074;-59
2021/07/29 06:07:06;;;;;;;26.15;14.68;;;973.20;1100.80;;;;;;5089909;28;20032;-58
2021/07/29 06:09:31;;;;;;;18.05;11.75;;;1024.30;1024.00;;;;;;5090289;28;20020;-58
2021/07/29 06:11:57;;;;;;;22.05;14.50;;;999.20;1049.60;;;;;;5089887;28;20478;-58
2021/07/29 06:14:23;;;;;;;24.58;15.45;;;998.70;1075.20;;;;;;5090316;28;20467;-61
2021/07/29 06:16:50;;;;;;;20.40;15.68;;;1024.00;1049.60;;;;;;5090369;28;20024;-59
2021/07/29 06:19:28;;;;;;;24.65;14.73;;;1076.10;947.20;;;;;;5090006;28;20024;-58
2021/07/29 06:21:55;;;;;;;24.63;15.40;;;1101.10;947.20;;;;;;5090031;28;20067;-59
2021/07/29 06:24:21;;;;;;;17.33;15.52;;;1101.70;921.60;;;;;;5090151;28;20363;-58
2021/07/29 06:26:48;;;;;;;20.85;18.00;;;1101.70;947.20;;;;;;5090104;28;20081;-58
2021/07/29 06:29:14;;;;;;;21.42;17.17;;;1127.30;921.60;;;;;;5089942;28;20020;-58
2021/07/29 06:31:40;;;;;;;19.60;17.70;;;1178.00;870.40;;;;;;5090135;28;20032;-58
2021/07/29 06:34:05;;;;;;;20.58;18.25;;;1178.20;870.40;;;;;;5090338;28;20515;-58
2021/07/29 06:36:31;;;;;;;18.42;16.63;;;1178.10;844.80;;;;;;5094010;28;20416;-58
2021/07/29 06:38:59;;;;;;;21.77;19.48;;;1203.20;870.40;;;;;;5094033;28;20115;-58
2021/07/29 06:41:25;;;;;;;20.05;18.00;;;1203.70;819.20;;;;;;5093860;28;20488;-59
2021/07/29 06:43:53;;;;;;;20.20;18.13;;;1203.70;793.60;;;;;;5094103;28;20462;-58
2021/07/29 06:46:19;;;;;;;20.33;18.25;;;1178.30;819.20;;;;;;5094282;28;20133;-58
2021/07/29 06:48:45;;;;;;;20.40;18.58;;;1203.90;793.60;;;;;;5093770;28;20482;-58
2021/07/29 06:51:10;;;;;;;21.42;18.38;;;1203.90;819.20;;;;;;5093947;28;20059;-57
2021/07/29 06:53:36;;;;;;;21.02;17.45;;;1229.50;768.00;;;;;;5093698;28;20028;-58
2021/07/29 06:56:04;;;;;;;20.85;18.88;;;1254.60;742.40;;;;;;5094132;28;20373;-58
2021/07/29 06:58:29;;;;;;;20.35;18.52;;;1254.50;768.00;;;;;;5093823;28;20531;-58
2021/07/29 07:01:00;;;;;;;20.25;18.65;;;1280.00;742.40;;;;;;5091322;28;20040;-57
2021/07/29 07:03:26;;;;;;;19.27;17.45;;;1255.30;742.40;;;;;;5093637;28;20020;-58
2021/07/29 07:05:52;;;;;;;20.08;17.55;;;1280.90;691.20;;;;;;5093893;28;20027;-58
2021/07/29 07:08:17;;;;;;;15.68;14.00;;;1254.60;742.40;;;;;;5093293;28;20040;-58
2021/07/29 07:10:43;;;;;;;19.90;17.95;;;1280.00;691.20;;;;;;5093378;28;20017;-58
2021/07/29 07:13:09;;;;;;;18.77;17.05;;;1280.40;691.20;;;;;;5093573;28;20024;-56
2021/07/29 07:15:35;;;;;;;19.98;17.92;;;1280.50;691.20;;;;;;5093189;28;20102;-58
2021/07/29 07:18:00;;;;;;;18.50;16.77;;;1280.40;691.20;;;;;;5093523;28;20119;-59
2021/07/29 07:20:26;;;;;;;20.30;18.45;;;1254.90;716.80;;;;;;5093259;28;20024;-58
2021/07/29 07:22:52;;;;;;;16.92;15.05;;;1280.50;691.20;;;;;;5093531;28;20112;-58
2021/07/29 07:25:19;;;;;;;14.68;13.15;;;1280.20;691.20;;;;;;5093141;28;20056;-58
2021/07/29 07:27:45;;;;;;;19.60;13.90;;;1229.00;768.00;;;;;;5092870;28;20028;-58
2021/07/29 07:30:13;;;;;;;14.85;13.23;;;1203.60;768.00;;;;;;5079117;28;20027;-60
2021/07/29 07:32:39;;;;;;;16.45;14.73;;;1177.80;793.60;;;;;;5077394;28;20048;-57
2021/07/29 07:35:05;;;;;;;16.80;15.27;;;1178.20;768.00;;;;;;5076935;28;20382;-58
2021/07/29 07:37:31;;;;;;;18.02;16.48;;;1203.70;768.00;;;;;;5083081;28;20029;-59
2021/07/29 07:39:57;;;;;;;21.25;17.85;;;1229.30;742.40;;;;;;5083401;28;20027;-59
2021/07/29 07:42:22;;;;;;;14.90;13.23;;;1254.80;742.40;;;;;;5084053;28;20573;-59
2021/07/29 07:44:53;;;;;;;17.52;16.08;;;1254.80;768.00;;;;;;5082901;28;20482;-62
2021/07/29 07:47:18;;;;;;;20.30;18.60;;;1280.20;716.80;;;;;;5077138;28;20044;-60
2021/07/29 07:49:44;;;;;;;20.95;16.55;;;1280.70;691.20;;;;;;5077465;28;20016;-61
2021/07/29 07:52:10;;;;;;;18.75;17.13;;;1305.70;665.60;;;;;;5078554;28;20028;-59
2021/07/29 07:54:36;;;;;;;15.52;13.88;;;1305.60;665.60;;;;;;5057457;28;20428;-58
2021/07/29 07:57:06;;;;;;;21.88;14.00;;;1305.70;640.00;;;;;;5085730;28;20077;-62
2021/07/29 07:59:38;;;;;;;16.60;13.65;;;1255.00;716.80;;;;;;5085369;28;20035;-62
2021/07/29 08:02:05;;;;;;;17.60;16.05;;;1203.80;742.40;;;;;;5073664;28;20060;-59
2021/07/29 08:04:31;;;;;;;16.73;15.27;;;1229.40;742.40;;;;;;5074282;28;20510;-59
2021/07/29 08:06:57;;;;;;;16.42;14.93;;;1254.50;742.40;;;;;;5073864;28;20068;-59
2021/07/29 08:09:23;;;;;;;16.83;15.18;;;1255.10;691.20;;;;;;5073953;28;20583;-60
2021/07/29 08:11:49;;;;;;;13.70;12.57;;;1280.20;691.20;;;;;;5074097;28;20016;-61
2021/07/29 08:14:14;;;;;;;17.73;16.27;;;1254.40;716.80;;;;;;5084901;28;20402;-60
2021/07/29 08:16:40;;;;;;;19.52;15.48;;;1280.20;691.20;;;;;;5085488;28;20030;-57
2021/07/29 08:19:07;;;;;;;16.25;14.80;;;1254.40;716.80;;;;;;5085235;28;20021;-59
2021/07/29 08:21:34;;;;;;;18.15;14.57;;;1229.70;665.60;;;;;;5084858;28;20028;-58
2021/07/29 08:23:59;;;;;;;17.00;15.52;;;1254.90;716.80;;;;;;5082784;28;20020;-61
2021/07/29 08:26:25;;;;;;;15.48;14.18;;;1255.00;716.80;;;;;;5076742;28;20497;-59
2021/07/29 08:28:53;;;;;;;17.15;13.85;;;1254.90;716.80;;;;;;5084618;28;20028;-59
2021/07/29 08:31:20;;;;;;;13.27;12.07;;;1229.40;742.40;;;;;;5073357;28;20028;-59
2021/07/29 08:33:46;;;;;;;14.38;12.82;;;1152.60;793.60;;;;;;5073498;28;20053;-59
2021/07/29 08:36:14;;;;;;;13.85;12.30;;;1126.50;870.40;;;;;;5074060;28;20060;-61
2021/07/29 08:38:41;;;;;;;13.30;11.60;;;1100.90;896.00;;;;;;5082094;28;20382;-60
2021/07/29 08:41:07;;;;;;;10.98;9.95;;;1075.80;896.00;;;;;;5085183;28;20132;-59
2021/07/29 08:43:34;;;;;;;11.60;10.02;;;1050.20;947.20;;;;;;5082776;28;20110;-61
2021/07/29 08:46:00;;;;;;;14.32;10.90;;;1049.80;972.80;;;;;;5077354;28;20029;-61
2021/07/29 08:48:26;;;;;;;16.77;11.73;;;1024.10;972.80;;;;;;5074275;28;20087;-63
2021/07/29 08:50:58;;;;;;;14.50;10.43;;;999.00;998.40;;;;;;5074545;28;20020;-59
2021/07/29 08:53:24;;;;;;;14.25;10.75;;;998.70;1024.00;;;;;;5074228;28;20081;-58
2021/07/29 08:55:54;;;;;;;13.18;10.15;;;998.50;1049.60;;;;;;5074218;28;20477;-59
2021/07/29 08:58:23;;;;;;;14.60;10.55;;;998.40;1024.00;;;;;;5073200;28;20486;-59
2021/07/29 09:01:11;;;;;;;13.30;10.90;;;998.60;1049.60;;;;;;5074391;28;20028;-57
2021/07/29 09:03:38;;;;;;;13.27;11.25;;;998.70;1024.00;;;;;;5074276;28;20431;-61
2021/07/29 09:06:06;;;;;;;12.57;10.57;;;998.40;1049.60;;;;;;5073891;28;20024;-60
2021/07/29 09:08:51;;;;;;;11.85;10.07;;;998.50;1049.60;;;;;;5073844;28;20469;-58
2021/07/29 09:11:35;;;;;;;16.45;11.85;;;973.50;1049.60;;;;;;5074026;28;20439;-59
2021/07/29 09:14:18;;;;;;;12.40;10.98;;;973.20;1049.60;;;;;;5074232;28;20056;-58
2021/07/29 09:16:53;;;;;;;11.93;10.75;;;973.50;1024.00;;;;;;5073681;28;20073;-65
2021/07/29 09:19:42;;;;;;;17.15;11.52;;;973.70;998.40;;;;;;5074735;28;20020;-58
2021/07/29 09:22:18;;;;;;;13.57;10.50;;;973.40;1075.20;;;;;;5074062;28;20224;-60
2021/07/29 09:25:12;;;;;;;17.63;11.30;;;973.30;1049.60;;;;;;5073974;28;20024;-62
2021/07/29 09:27:37;;;;;;;15.32;10.15;;;973.30;1100.80;;;;;;5074004;28;20024;-59
2021/07/29 09:30:47;;;;;;;16.65;10.38;;;972.90;1100.80;;;;;;5072174;28;20020;-61
2021/07/29 09:33:13;;;;;;;12.95;11.57;;;973.20;1100.80;;;;;;5028470;28;20065;-58
2021/07/29 09:35:46;;;;;;;13.65;11.88;;;973.40;1075.20;;;;;;5028701;28;20032;-58
2021/07/29 09:38:29;;;;;;;15.90;11.77;;;973.40;1075.20;;;;;;5028457;28;20487;-60
2021/07/29 09:40:54;;;;;;;14.20;10.57;;;972.90;1152.00;;;;;;5020769;28;20411;-60
2021/07/29 09:43:31;;;;;;;13.93;10.65;;;973.20;1126.40;;;;;;5008781;28;20034;-59
2021/07/29 09:46:01;;;;;;;12.98;10.70;;;973.40;1126.40;;;;;;5008067;28;20018;-59
2021/07/29 09:48:28;;;;;;;16.67;11.38;;;973.20;1126.40;;;;;;5008401;28;20045;-61
2021/07/29 09:50:59;;;;;;;17.73;11.93;;;972.90;1126.40;;;;;;5010791;28;20092;-57
2021/07/29 09:53:34;;;;;;;13.57;12.02;;;973.20;1152.00;;;;;;5011551;28;20036;-58
2021/07/29 09:56:12;;;;;;;18.63;10.98;;;948.10;1177.60;;;;;;5011686;28;20053;-58
2021/07/29 09:58:41;;;;;;;15.38;11.85;;;948.00;1152.00;;;;;;5011847;28;20033;-56
2021/07/29 10:01:08;;;;;;;14.55;11.82;;;972.90;1126.40;;;;;;5009881;28;20091;-59
2021/07/29 10:03:34;;;;;;;17.33;11.68;;;973.10;1126.40;;;;;;5031737;28;20037;-58
2021/07/29 10:06:03;;;;;;;15.75;11.80;;;948.10;1152.00;;;;;;5070165;28;20378;-56
2021/07/29 10:08:38;;;;;;;17.00;12.00;;;947.80;1152.00;;;;;;5069951;28;20033;-57
2021/07/29 10:11:15;;;;;;;12.93;10.80;;;947.60;1152.00;;;;;;5070170;28;20215;-57
2021/07/29 10:13:42;;;;;;;11.38;10.25;;;947.50;1203.20;;;;;;5070185;28;20104;-57
2021/07/29 10:16:09;;;;;;;16.80;11.88;;;947.40;1177.60;;;;;;5069962;28;20028;-61
2021/07/29 10:18:50;;;;;;;12.52;10.32;;;947.40;1203.20;;;;;;5070001;28;20016;-60
2021/07/29 10:21:31;;;;;;;13.63;11.73;;;947.40;1203.20;;;;;;5069834;28;20036;-61
2021/07/29 10:24:01;;;;;;;13.70;11.85;;;922.30;1228.80;;;;;;5069915;28;20036;-60
2021/07/29 10:26:28;;;;;;;14.00;11.35;;;922.30;1228.80;;;;;;5069756;28;20033;-60
2021/07/29 10:29:20;;;;;;;12.57;10.98;;;922.30;1228.80;;;;;;5069604;28;20360;-58
2021/07/29 10:31:57;;;;;;;16.23;10.60;;;922.30;1228.80;;;;;;5069426;28;20106;-58
2021/07/29 10:34:31;;;;;;;15.25;10.30;;;922.50;1228.80;;;;;;5069896;28;20052;-58
2021/07/29 10:37:01;;;;;;;15.80;10.85;;;922.40;1203.20;;;;;;5069842;28;20375;-58
2021/07/29 10:39:27;;;;;;;17.45;11.18;;;922.00;1203.20;;;;;;5069688;28;20017;-58
2021/07/29 10:42:00;;;;;;;15.77;10.75;;;922.20;1280.00;;;;;;5069839;28;20017;-60
2021/07/29 10:44:32;;;;;;;20.08;11.13;;;922.50;1203.20;;;;;;5069752;28;20078;-58
2021/07/29 10:47:00;;;;;;;21.33;10.90;;;922.40;1203.20;;;;;;5069340;28;20067;-58
2021/07/29 10:49:44;;;;;;;14.18;10.70;;;922.20;1203.20;;;;;;5069481;28;20024;-56
2021/07/29 10:52:10;;;;;;;15.07;10.68;;;922.00;1177.60;;;;;;5069896;28;20032;-57
2021/07/29 10:54:41;;;;;;;13.48;11.10;;;922.00;1203.20;;;;;;5071244;28;20025;-58
2021/07/29 10:57:09;;;;;;;14.30;11.00;;;922.00;1203.20;;;;;;5083986;28;20028;-58
2021/07/29 10:59:36;;;;;;;12.98;11.65;;;921.90;1203.20;;;;;;5087629;28;20473;-58
2021/07/29 11:02:09;;;;;;;15.15;10.82;;;921.90;1203.20;;;;;;5088154;28;20032;-61
2021/07/29 11:04:54;;;;;;;12.43;10.88;;;921.60;1177.60;;;;;;5088242;28;20034;-58
2021/07/29 11:07:20;;;;;;;15.65;10.95;;;921.60;1177.60;;;;;;5088140;28;20040;-61
2021/07/29 11:09:46;;;;;;;21.48;11.85;;;896.90;1177.60;;;;;;5088179;28;20557;-59
2021/07/29 11:12:14;;;;;;;14.85;11.02;;;921.70;1254.40;;;;;;5087777;28;20742;-58
2021/07/29 11:14:40;;;;;;;17.00;11.90;;;921.80;1254.40;;;;;;5088247;28;20028;-60
2021/07/29 11:17:06;;;;;;;19.85;11.70;;;922.00;1177.60;;;;;;5087768;28;20103;-64
2021/07/29 11:19:46;;;;;;;17.05;11.38;;;922.00;1177.60;;;;;;5088182;28;20032;-62
2021/07/29 11:22:12;;;;;;;18.30;11.93;;;922.00;1177.60;;;;;;5091679;28;20032;-64
2021/07/29 11:24:38;;;;;;;15.60;10.93;;;921.90;1177.60;;;;;;5091181;28;20551;-62
2021/07/29 11:27:07;;;;;;;16.67;13.40;;;921.90;1152.00;;;;;;5091832;28;20032;-59
2021/07/29 11:29:33;;;;;;;13.07;11.15;;;921.70;1177.60;;;;;;5091954;28;20036;-58
2021/07/29 11:31:59;;;;;;;20.90;11.93;;;896.90;1152.00;;;;;;5091478;28;20044;-61
2021/07/29 11:34:29;;;;;;;26.13;11.55;;;896.90;1152.00;;;;;;5091560;28;20035;-62
2021/07/29 11:36:55;;;;;;;21.15;11.10;;;896.90;1177.60;;;;;;5091463;28;20118;-62
2021/07/29 11:39:22;;;;;;;11.98;10.60;;;896.40;1203.20;;;;;;5091126;28;20123;-56
2021/07/29 11:41:56;;;;;;;19.25;11.50;;;896.50;1203.20;;;;;;5091583;28;20381;-59
2021/07/29 11:44:23;;;;;;;17.38;10.68;;;896.60;1203.20;;;;;;5091737;28;20119;-61
2021/07/29 11:46:58;;;;;;;17.63;10.65;;;896.90;1177.60;;;;;;5091477;28;20031;-61
2021/07/29 11:49:25;;;;;;;18.10;11.88;;;896.80;1177.60;;;;;;5091295;28;20077;-61
2021/07/29 11:52:03;;;;;;;18.58;10.82;;;896.30;1177.60;;;;;;5090875;28;20021;-63
2021/07/29 11:54:30;;;;;;;15.75;10.18;;;896.50;1203.20;;;;;;5090073;28;20035;-62
2021/07/29 11:56:58;;;;;;;16.20;10.55;;;896.60;1228.80;;;;;;5091262;28;20028;-63
2021/07/29 11:59:24;;;;;;;13.40;10.18;;;896.80;1203.20;;;;;;5091146;28;20024;-62
2021/07/29 12:01:50;;;;;;;11.98;10.23;;;896.50;1203.20;;;;;;5091009;28;20119;-60
2021/07/29 12:04:17;;;;;;;14.63;11.95;;;896.20;1203.20;;;;;;5090604;28;20106;-61
2021/07/29 12:06:43;;;;;;;18.65;11.98;;;896.50;1228.80;;;;;;5090997;28;20047;-58